sensor_id;sensor_type;location;lat;lon;timestamp;pressure;altitude;pressure_sealevel;temperature;humidity
81397;BME280;70852;49.908;8.126;2024-01-06T00:02:05;99064.25;;;2.99;86.74
81397;BME280;70852;49.908;8.126;2024-01-06T00:04:30;99079.44;;;3.05;86.67
81397;BME280;70852;49.908;8.126;2024-01-06T00:06:56;99074.41;;;3.12;86.47
81397;BME280;70852;49.908;8.126;2024-01-06T00:09:24;99078.97;;;3.16;86.02
81397;BME280;70852;49.908;8.126;2024-01-06T00:11:53;99082.88;;;3.10;85.19
81397;BME280;70852;49.908;8.126;2024-01-06T00:14:19;99081.38;;;3.18;84.95
81397;BME280;70852;49.908;8.126;2024-01-06T00:16:47;99089.56;;;3.18;85.96
81397;BME280;70852;49.908;8.126;2024-01-06T00:19:14;99087.16;;;3.30;86.03
81397;BME280;70852;49.908;8.126;2024-01-06T00:21:39;99081.41;;;3.31;85.58
81397;BME280;70852;49.908;8.126;2024-01-06T00:24:05;99080.59;;;3.31;85.82
81397;BME280;70852;49.908;8.126;2024-01-06T00:26:30;99079.41;;;3.37;85.68
81397;BME280;70852;49.908;8.126;2024-01-06T00:29:00;99082.75;;;3.48;85.79
81397;BME280;70852;49.908;8.126;2024-01-06T00:31:28;99083.47;;;3.53;85.54
81397;BME280;70852;49.908;8.126;2024-01-06T00:33:55;99084.19;;;3.59;85.35
81397;BME280;70852;49.908;8.126;2024-01-06T00:36:25;99081.47;;;3.59;85.41
81397;BME280;70852;49.908;8.126;2024-01-06T00:38:50;99073.97;;;3.64;85.17
81397;BME280;70852;49.908;8.126;2024-01-06T00:41:20;99072.78;;;3.71;84.79
81397;BME280;70852;49.908;8.126;2024-01-06T00:43:45;99076.19;;;3.76;84.45
81397;BME280;70852;49.908;8.126;2024-01-06T00:46:10;99068.53;;;3.78;84.65
81397;BME280;70852;49.908;8.126;2024-01-06T00:48:40;99064.84;;;3.96;84.09
81397;BME280;70852;49.908;8.126;2024-01-06T00:51:05;99075.19;;;3.99;83.80
81397;BME280;70852;49.908;8.126;2024-01-06T00:53:35;99073.06;;;3.96;83.93
81397;BME280;70852;49.908;8.126;2024-01-06T00:56:00;99075.38;;;3.89;84.50
81397;BME280;70852;49.908;8.126;2024-01-06T00:58:26;99076.72;;;3.92;84.33
81397;BME280;70852;49.908;8.126;2024-01-06T01:00:53;99078.31;;;3.93;83.85
81397;BME280;70852;49.908;8.126;2024-01-06T01:03:21;99082.78;;;4.02;83.79
81397;BME280;70852;49.908;8.126;2024-01-06T01:05:48;99079.03;;;3.98;83.63
81397;BME280;70852;49.908;8.126;2024-01-06T01:08:16;99081.44;;;4.00;83.54
81397;BME280;70852;49.908;8.126;2024-01-06T01:10:43;99075.19;;;3.99;83.60
81397;BME280;70852;49.908;8.126;2024-01-06T01:13:10;99086.41;;;3.98;83.79
81397;BME280;70852;49.908;8.126;2024-01-06T01:15:35;99086.09;;;3.99;83.76
81397;BME280;70852;49.908;8.126;2024-01-06T01:18:00;99090.75;;;3.99;84.15
81397;BME280;70852;49.908;8.126;2024-01-06T01:20:28;99095.28;;;4.03;84.07
81397;BME280;70852;49.908;8.126;2024-01-06T01:22:56;99097.84;;;4.00;83.82
81397;BME280;70852;49.908;8.126;2024-01-06T01:25:21;99105.31;;;4.08;84.09
81397;BME280;70852;49.908;8.126;2024-01-06T01:27:49;99098.44;;;4.11;83.61
81397;BME280;70852;49.908;8.126;2024-01-06T01:30:19;99107.53;;;4.06;84.14
81397;BME280;70852;49.908;8.126;2024-01-06T01:32:44;99114.53;;;4.12;84.02
81397;BME280;70852;49.908;8.126;2024-01-06T01:35:10;99110.34;;;4.15;83.33
81397;BME280;70852;49.908;8.126;2024-01-06T01:37:35;99103.09;;;4.10;83.63
81397;BME280;70852;49.908;8.126;2024-01-06T01:40:03;99121.09;;;4.11;83.97
81397;BME280;70852;49.908;8.126;2024-01-06T01:42:28;99107.75;;;4.23;83.15
81397;BME280;70852;49.908;8.126;2024-01-06T01:44:53;99115.44;;;4.21;83.40
81397;BME280;70852;49.908;8.126;2024-01-06T01:47:19;99120.91;;;4.21;83.70
81397;BME280;70852;49.908;8.126;2024-01-06T01:49:49;99126.38;;;4.21;83.50
81397;BME280;70852;49.908;8.126;2024-01-06T01:52:15;99124.75;;;4.20;84.01
81397;BME280;70852;49.908;8.126;2024-01-06T01:54:45;99130.22;;;4.20;83.44
81397;BME280;70852;49.908;8.126;2024-01-06T01:57:14;99133.75;;;4.21;83.44
81397;BME280;70852;49.908;8.126;2024-01-06T01:59:48;99128.28;;;4.21;83.61
81397;BME280;70852;49.908;8.126;2024-01-06T02:02:19;99125.84;;;4.19;84.06
81397;BME280;70852;49.908;8.126;2024-01-06T02:04:49;99126.44;;;4.30;84.41
81397;BME280;70852;49.908;8.126;2024-01-06T02:07:19;99134.34;;;4.31;84.16
81397;BME280;70852;49.908;8.126;2024-01-06T02:09:47;99132.59;;;4.35;83.98
81397;BME280;70852;49.908;8.126;2024-01-06T02:12:15;99139.09;;;4.39;83.65
81397;BME280;70852;49.908;8.126;2024-01-06T02:14:40;99126.91;;;4.46;84.07
81397;BME280;70852;49.908;8.126;2024-01-06T02:17:06;99122.88;;;4.43;83.36
81397;BME280;70852;49.908;8.126;2024-01-06T02:19:32;99131.16;;;4.52;83.32
81397;BME280;70852;49.908;8.126;2024-01-06T02:21:57;99125.31;;;4.45;82.81
81397;BME280;70852;49.908;8.126;2024-01-06T02:24:25;99140.09;;;4.44;82.84
81397;BME280;70852;49.908;8.126;2024-01-06T02:26:50;99143.81;;;4.48;82.81
81397;BME280;70852;49.908;8.126;2024-01-06T02:29:17;99154.66;;;4.53;83.13
81397;BME280;70852;49.908;8.126;2024-01-06T02:31:43;99154.84;;;4.56;83.75
81397;BME280;70852;49.908;8.126;2024-01-06T02:34:09;99157.91;;;4.55;83.05
81397;BME280;70852;49.908;8.126;2024-01-06T02:36:36;99163.75;;;4.62;83.05
81397;BME280;70852;49.908;8.126;2024-01-06T02:39:04;99162.50;;;4.68;82.86
81397;BME280;70852;49.908;8.126;2024-01-06T02:41:31;99158.16;;;4.67;82.61
81397;BME280;70852;49.908;8.126;2024-01-06T02:43:56;99160.59;;;4.68;82.55
81397;BME280;70852;49.908;8.126;2024-01-06T02:46:24;99154.00;;;4.69;83.04
81397;BME280;70852;49.908;8.126;2024-01-06T02:48:52;99156.00;;;4.77;82.40
81397;BME280;70852;49.908;8.126;2024-01-06T02:51:17;99156.75;;;4.69;83.03
81397;BME280;70852;49.908;8.126;2024-01-06T02:53:45;99155.63;;;4.70;82.32
81397;BME280;70852;49.908;8.126;2024-01-06T02:56:11;99174.09;;;4.65;82.30
81397;BME280;70852;49.908;8.126;2024-01-06T02:58:39;99171.97;;;4.62;82.93
81397;BME280;70852;49.908;8.126;2024-01-06T03:01:07;99187.56;;;4.61;82.09
81397;BME280;70852;49.908;8.126;2024-01-06T03:03:34;99183.94;;;4.52;82.63
81397;BME280;70852;49.908;8.126;2024-01-06T03:06:04;99182.19;;;4.56;82.38
81397;BME280;70852;49.908;8.126;2024-01-06T03:08:32;99169.66;;;4.55;82.41
81397;BME280;70852;49.908;8.126;2024-01-06T03:10:57;99175.81;;;4.61;82.85
81397;BME280;70852;49.908;8.126;2024-01-06T03:13:23;99178.00;;;4.72;82.10
81397;BME280;70852;49.908;8.126;2024-01-06T03:15:48;99173.06;;;4.74;82.72
81397;BME280;70852;49.908;8.126;2024-01-06T03:18:16;99167.28;;;4.76;82.64
81397;BME280;70852;49.908;8.126;2024-01-06T03:20:48;99177.28;;;4.81;82.20
81397;BME280;70852;49.908;8.126;2024-01-06T03:23:13;99177.59;;;4.79;82.39
81397;BME280;70852;49.908;8.126;2024-01-06T03:25:38;99182.66;;;4.86;82.03
81397;BME280;70852;49.908;8.126;2024-01-06T03:28:06;99175.72;;;4.88;82.32
81397;BME280;70852;49.908;8.126;2024-01-06T03:30:33;99178.66;;;4.92;82.25
81397;BME280;70852;49.908;8.126;2024-01-06T03:32:59;99181.69;;;4.90;82.46
81397;BME280;70852;49.908;8.126;2024-01-06T03:35:26;99181.69;;;4.90;82.76
81397;BME280;70852;49.908;8.126;2024-01-06T03:37:51;99183.13;;;4.88;82.60
81397;BME280;70852;49.908;8.126;2024-01-06T03:40:19;99184.44;;;4.90;82.92
81397;BME280;70852;49.908;8.126;2024-01-06T03:42:47;99180.72;;;4.86;82.66
81397;BME280;70852;49.908;8.126;2024-01-06T03:45:13;99192.84;;;4.94;82.56
81397;BME280;70852;49.908;8.126;2024-01-06T03:47:40;99192.03;;;4.93;82.57
81397;BME280;70852;49.908;8.126;2024-01-06T03:50:08;99188.94;;;4.86;82.62
81397;BME280;70852;49.908;8.126;2024-01-06T03:52:36;99191.97;;;4.85;82.77
81397;BME280;70852;49.908;8.126;2024-01-06T03:55:04;99202.41;;;4.83;82.61
81397;BME280;70852;49.908;8.126;2024-01-06T03:57:32;99204.22;;;4.87;82.72
81397;BME280;70852;49.908;8.126;2024-01-06T04:00:00;99197.13;;;4.86;82.59
81397;BME280;70852;49.908;8.126;2024-01-06T04:02:26;99195.50;;;4.85;82.96
81397;BME280;70852;49.908;8.126;2024-01-06T04:04:53;99186.06;;;4.91;83.22
81397;BME280;70852;49.908;8.126;2024-01-06T04:07:19;99200.84;;;4.90;82.45
81397;BME280;70852;49.908;8.126;2024-01-06T04:09:46;99195.38;;;4.90;81.61
81397;BME280;70852;49.908;8.126;2024-01-06T04:12:14;99197.00;;;4.91;82.49
81397;BME280;70852;49.908;8.126;2024-01-06T04:14:41;99202.06;;;4.98;82.72
81397;BME280;70852;49.908;8.126;2024-01-06T04:17:09;99197.88;;;5.00;83.00
81397;BME280;70852;49.908;8.126;2024-01-06T04:19:34;99199.44;;;4.93;83.02
81397;BME280;70852;49.908;8.126;2024-01-06T04:22:02;99199.75;;;4.91;82.62
81397;BME280;70852;49.908;8.126;2024-01-06T04:24:27;99202.59;;;4.86;82.85
81397;BME280;70852;49.908;8.126;2024-01-06T04:26:55;99204.69;;;4.89;82.87
81397;BME280;70852;49.908;8.126;2024-01-06T04:29:20;99196.50;;;4.89;82.69
81397;BME280;70852;49.908;8.126;2024-01-06T04:31:46;99208.25;;;4.90;82.93
81397;BME280;70852;49.908;8.126;2024-01-06T04:34:13;99205.56;;;4.76;83.14
81397;BME280;70852;49.908;8.126;2024-01-06T04:36:41;99209.28;;;4.80;83.26
81397;BME280;70852;49.908;8.126;2024-01-06T04:39:09;99206.03;;;4.92;82.36
81397;BME280;70852;49.908;8.126;2024-01-06T04:41:36;99202.69;;;4.95;83.08
81397;BME280;70852;49.908;8.126;2024-01-06T04:44:02;99190.56;;;4.87;82.44
81397;BME280;70852;49.908;8.126;2024-01-06T04:46:29;99187.69;;;4.92;82.22
81397;BME280;70852;49.908;8.126;2024-01-06T04:48:55;99203.91;;;4.89;82.49
81397;BME280;70852;49.908;8.126;2024-01-06T04:51:25;99194.47;;;4.95;82.81
81397;BME280;70852;49.908;8.126;2024-01-06T04:53:51;99193.16;;;4.92;82.78
81397;BME280;70852;49.908;8.126;2024-01-06T04:56:16;99207.94;;;4.91;83.39
81397;BME280;70852;49.908;8.126;2024-01-06T04:58:41;99206.47;;;4.85;83.21
81397;BME280;70852;49.908;8.126;2024-01-06T05:01:07;99209.69;;;4.87;83.04
81397;BME280;70852;49.908;8.126;2024-01-06T05:03:35;99212.91;;;4.89;82.92
81397;BME280;70852;49.908;8.126;2024-01-06T05:06:03;99214.44;;;4.95;83.47
81397;BME280;70852;49.908;8.126;2024-01-06T05:08:29;99219.78;;;5.00;83.08
81397;BME280;70852;49.908;8.126;2024-01-06T05:10:56;99211.97;;;5.07;83.38
81397;BME280;70852;49.908;8.126;2024-01-06T05:13:21;99210.97;;;5.03;82.84
81397;BME280;70852;49.908;8.126;2024-01-06T05:15:48;99209.03;;;5.04;83.14
81397;BME280;70852;49.908;8.126;2024-01-06T05:18:18;99214.19;;;5.05;83.34
81397;BME280;70852;49.908;8.126;2024-01-06T05:20:43;99218.44;;;5.11;83.19
81397;BME280;70852;49.908;8.126;2024-01-06T05:23:11;99209.09;;;5.12;82.58
81397;BME280;70852;49.908;8.126;2024-01-06T05:25:41;99215.69;;;5.11;81.82
81397;BME280;70852;49.908;8.126;2024-01-06T05:28:11;99220.41;;;4.97;82.41
81397;BME280;70852;49.908;8.126;2024-01-06T05:30:36;99215.25;;;4.96;82.38
81397;BME280;70852;49.908;8.126;2024-01-06T05:33:04;99209.56;;;4.92;83.02
81397;BME280;70852;49.908;8.126;2024-01-06T05:35:30;99217.91;;;4.87;83.22
81397;BME280;70852;49.908;8.126;2024-01-06T05:37:57;99211.41;;;4.83;83.08
81397;BME280;70852;49.908;8.126;2024-01-06T05:40:25;99219.94;;;4.82;83.22
81397;BME280;70852;49.908;8.126;2024-01-06T05:42:52;99211.41;;;4.83;83.34
81397;BME280;70852;49.908;8.126;2024-01-06T05:45:22;99217.81;;;4.78;83.74
81397;BME280;70852;49.908;8.126;2024-01-06T05:47:51;99219.25;;;4.76;83.63
81397;BME280;70852;49.908;8.126;2024-01-06T05:50:18;99215.06;;;4.78;83.94
81397;BME280;70852;49.908;8.126;2024-01-06T05:52:44;99219.13;;;4.81;83.54
81397;BME280;70852;49.908;8.126;2024-01-06T05:55:11;99219.94;;;4.82;83.54
81397;BME280;70852;49.908;8.126;2024-01-06T05:57:36;99224.72;;;4.76;83.58
81397;BME280;70852;49.908;8.126;2024-01-06T06:00:02;99227.03;;;4.83;83.41
81397;BME280;70852;49.908;8.126;2024-01-06T06:02:27;99225.69;;;4.80;83.88
81397;BME280;70852;49.908;8.126;2024-01-06T06:04:53;99223.91;;;4.75;84.01
81397;BME280;70852;49.908;8.126;2024-01-06T06:07:18;99231.97;;;4.81;83.87
81397;BME280;70852;49.908;8.126;2024-01-06T06:09:51;99231.19;;;4.80;84.15
81397;BME280;70852;49.908;8.126;2024-01-06T06:12:18;99233.63;;;4.68;84.69
81397;BME280;70852;49.908;8.126;2024-01-06T06:14:43;99237.88;;;4.74;84.55
81397;BME280;70852;49.908;8.126;2024-01-06T06:17:11;99244.16;;;4.74;84.54
81397;BME280;70852;49.908;8.126;2024-01-06T06:19:38;99248.81;;;4.74;84.83
81397;BME280;70852;49.908;8.126;2024-01-06T06:22:07;99258.03;;;4.78;84.21
81397;BME280;70852;49.908;8.126;2024-01-06T06:24:32;99260.53;;;4.88;84.24
81397;BME280;70852;49.908;8.126;2024-01-06T06:26:57;99262.38;;;4.93;83.71
81397;BME280;70852;49.908;8.126;2024-01-06T06:29:25;99260.94;;;4.95;83.81
81397;BME280;70852;49.908;8.126;2024-01-06T06:31:50;99265.31;;;4.96;83.53
81397;BME280;70852;49.908;8.126;2024-01-06T06:34:15;99269.66;;;4.97;83.59
81397;BME280;70852;49.908;8.126;2024-01-06T06:36:43;99276.13;;;5.01;83.47
81397;BME280;70852;49.908;8.126;2024-01-06T06:39:08;99273.69;;;5.00;83.80
81397;BME280;70852;49.908;8.126;2024-01-06T06:41:34;99278.34;;;4.99;83.83
81397;BME280;70852;49.908;8.126;2024-01-06T06:43:59;99283.13;;;5.07;83.35
81397;BME280;70852;49.908;8.126;2024-01-06T06:46:27;99285.44;;;5.00;83.69
81397;BME280;70852;49.908;8.126;2024-01-06T06:48:52;99286.91;;;4.98;83.59
81397;BME280;70852;49.908;8.126;2024-01-06T06:51:20;99295.78;;;5.03;84.01
81397;BME280;70852;49.908;8.126;2024-01-06T06:53:52;99298.53;;;5.03;84.21
81397;BME280;70852;49.908;8.126;2024-01-06T06:56:19;99297.84;;;4.98;84.14
81397;BME280;70852;49.908;8.126;2024-01-06T06:58:47;99295.72;;;4.95;84.27
81397;BME280;70852;49.908;8.126;2024-01-06T07:01:16;99310.72;;;4.97;83.98
81397;BME280;70852;49.908;8.126;2024-01-06T07:03:42;99312.50;;;5.02;84.12
81397;BME280;70852;49.908;8.126;2024-01-06T07:06:07;99313.53;;;5.06;84.09
81397;BME280;70852;49.908;8.126;2024-01-06T07:08:32;99324.19;;;5.07;84.03
81397;BME280;70852;49.908;8.126;2024-01-06T07:11:00;99316.97;;;5.11;84.37
81397;BME280;70852;49.908;8.126;2024-01-06T07:13:25;99323.25;;;5.12;83.86
81397;BME280;70852;49.908;8.126;2024-01-06T07:15:55;99324.66;;;5.09;83.91
81397;BME280;70852;49.908;8.126;2024-01-06T07:18:23;99325.56;;;5.19;83.86
81397;BME280;70852;49.908;8.126;2024-01-06T07:20:52;99329.81;;;5.25;83.80
81397;BME280;70852;49.908;8.126;2024-01-06T07:23:17;99332.03;;;5.23;83.27
81397;BME280;70852;49.908;8.126;2024-01-06T07:25:42;99336.09;;;5.25;83.29
81397;BME280;70852;49.908;8.126;2024-01-06T07:28:08;99335.38;;;5.20;82.99
81397;BME280;70852;49.908;8.126;2024-01-06T07:30:34;99344.09;;;5.22;83.38
81397;BME280;70852;49.908;8.126;2024-01-06T07:32:59;99338.94;;;5.20;83.16
81397;BME280;70852;49.908;8.126;2024-01-06T07:35:25;99346.66;;;5.18;83.49
81397;BME280;70852;49.908;8.126;2024-01-06T07:37:50;99351.81;;;5.20;83.19
81397;BME280;70852;49.908;8.126;2024-01-06T07:40:18;99346.44;;;5.28;83.44
81397;BME280;70852;49.908;8.126;2024-01-06T07:42:43;99355.34;;;5.20;83.21
81397;BME280;70852;49.908;8.126;2024-01-06T07:45:10;99367.31;;;5.24;83.89
81397;BME280;70852;49.908;8.126;2024-01-06T07:47:40;99364.59;;;5.24;83.51
81397;BME280;70852;49.908;8.126;2024-01-06T07:50:09;99374.63;;;5.29;83.40
81397;BME280;70852;49.908;8.126;2024-01-06T07:52:34;99377.25;;;5.34;83.27
81397;BME280;70852;49.908;8.126;2024-01-06T07:55:00;99376.03;;;5.40;83.14
81397;BME280;70852;49.908;8.126;2024-01-06T07:57:27;99379.69;;;5.35;82.62
81397;BME280;70852;49.908;8.126;2024-01-06T07:59:55;99391.06;;;5.29;83.14
81397;BME280;70852;49.908;8.126;2024-01-06T08:02:20;99397.81;;;5.31;83.07
81397;BME280;70852;49.908;8.126;2024-01-06T08:04:45;99391.75;;;5.34;83.19
81397;BME280;70852;49.908;8.126;2024-01-06T08:07:11;99390.50;;;5.40;83.26
81397;BME280;70852;49.908;8.126;2024-01-06T08:09:36;99395.88;;;5.45;83.44
81397;BME280;70852;49.908;8.126;2024-01-06T08:12:01;99389.59;;;5.45;83.39
81397;BME280;70852;49.908;8.126;2024-01-06T08:14:31;99382.72;;;5.47;83.34
81397;BME280;70852;49.908;8.126;2024-01-06T08:16:59;99390.63;;;5.49;83.37
81397;BME280;70852;49.908;8.126;2024-01-06T08:19:24;99394.47;;;5.48;82.88
81397;BME280;70852;49.908;8.126;2024-01-06T08:21:50;99398.72;;;5.54;83.34
81397;BME280;70852;49.908;8.126;2024-01-06T08:24:18;99397.72;;;5.50;83.25
81397;BME280;70852;49.908;8.126;2024-01-06T08:26:43;99395.59;;;5.47;83.53
81397;BME280;70852;49.908;8.126;2024-01-06T08:29:10;99400.25;;;5.46;83.67
81397;BME280;70852;49.908;8.126;2024-01-06T08:31:35;99409.38;;;5.42;83.25
81397;BME280;70852;49.908;8.126;2024-01-06T08:34:02;99411.50;;;5.45;83.73
81397;BME280;70852;49.908;8.126;2024-01-06T08:36:30;99418.22;;;5.39;83.55
81397;BME280;70852;49.908;8.126;2024-01-06T08:38:55;99413.34;;;5.36;83.63
81397;BME280;70852;49.908;8.126;2024-01-06T08:41:21;99419.03;;;5.39;82.96
81397;BME280;70852;49.908;8.126;2024-01-06T08:43:46;99421.66;;;5.44;83.50
81397;BME280;70852;49.908;8.126;2024-01-06T08:46:11;99430.25;;;5.51;83.19
81397;BME280;70852;49.908;8.126;2024-01-06T08:48:37;99432.31;;;5.46;83.65
81397;BME280;70852;49.908;8.126;2024-01-06T08:51:02;99427.03;;;5.49;83.72
81397;BME280;70852;49.908;8.126;2024-01-06T08:53:28;99435.34;;;5.58;84.01
81397;BME280;70852;49.908;8.126;2024-01-06T08:55:53;99426.31;;;5.58;83.96
81397;BME280;70852;49.908;8.126;2024-01-06T08:58:20;99428.53;;;5.56;83.75
81397;BME280;70852;49.908;8.126;2024-01-06T09:00:51;99434.81;;;5.56;83.33
81397;BME280;70852;49.908;8.126;2024-01-06T09:03:18;99435.84;;;5.60;83.32
81397;BME280;70852;49.908;8.126;2024-01-06T09:05:52;99442.22;;;5.56;83.59
81397;BME280;70852;49.908;8.126;2024-01-06T09:08:18;99451.25;;;5.56;83.26
81397;BME280;70852;49.908;8.126;2024-01-06T09:10:45;99444.28;;;5.50;83.99
81397;BME280;70852;49.908;8.126;2024-01-06T09:13:13;99446.38;;;5.53;83.17
81397;BME280;70852;49.908;8.126;2024-01-06T09:15:38;99443.94;;;5.51;83.67
81397;BME280;70852;49.908;8.126;2024-01-06T09:18:06;99452.28;;;5.60;83.58
81397;BME280;70852;49.908;8.126;2024-01-06T09:20:31;99453.03;;;5.74;83.89
81397;BME280;70852;49.908;8.126;2024-01-06T09:22:56;99463.41;;;5.77;83.62
81397;BME280;70852;49.908;8.126;2024-01-06T09:25:24;99455.38;;;5.81;83.09
81397;BME280;70852;49.908;8.126;2024-01-06T09:27:50;99461.56;;;5.86;82.77
81397;BME280;70852;49.908;8.126;2024-01-06T09:30:18;99460.44;;;5.87;82.55
81397;BME280;70852;49.908;8.126;2024-01-06T09:32:46;99464.53;;;5.90;82.65
81397;BME280;70852;49.908;8.126;2024-01-06T09:35:11;99465.66;;;5.89;82.42
81397;BME280;70852;49.908;8.126;2024-01-06T09:37:39;99468.47;;;5.98;82.56
81397;BME280;70852;49.908;8.126;2024-01-06T09:40:08;99474.44;;;6.00;82.41
81397;BME280;70852;49.908;8.126;2024-01-06T09:42:39;99475.03;;;6.10;82.20
81397;BME280;70852;49.908;8.126;2024-01-06T09:45:05;99472.50;;;6.14;82.03
81397;BME280;70852;49.908;8.126;2024-01-06T09:47:34;99482.50;;;6.18;82.11
81397;BME280;70852;49.908;8.126;2024-01-06T09:50:01;99483.31;;;6.19;82.24
81397;BME280;70852;49.908;8.126;2024-01-06T09:52:28;99484.16;;;6.06;81.90
81397;BME280;70852;49.908;8.126;2024-01-06T09:54:59;99487.53;;;6.03;82.50
81397;BME280;70852;49.908;8.126;2024-01-06T09:57:28;99501.31;;;6.11;82.57
81397;BME280;70852;49.908;8.126;2024-01-06T09:59:54;99496.06;;;6.01;82.73
81397;BME280;70852;49.908;8.126;2024-01-06T10:02:23;99500.44;;;6.02;82.85
81397;BME280;70852;49.908;8.126;2024-01-06T10:04:52;99495.44;;;6.04;82.41
81397;BME280;70852;49.908;8.126;2024-01-06T10:07:22;99499.84;;;5.92;83.13
81397;BME280;70852;49.908;8.126;2024-01-06T10:09:50;99498.00;;;6.01;83.21
81397;BME280;70852;49.908;8.126;2024-01-06T10:12:22;99495.13;;;6.06;83.53
81397;BME280;70852;49.908;8.126;2024-01-06T10:14:50;99494.91;;;6.16;83.06
81397;BME280;70852;49.908;8.126;2024-01-06T10:17:20;99498.03;;;6.23;82.57
81397;BME280;70852;49.908;8.126;2024-01-06T10:19:46;99504.72;;;6.31;82.91
81397;BME280;70852;49.908;8.126;2024-01-06T10:22:11;99503.41;;;6.28;83.18
81397;BME280;70852;49.908;8.126;2024-01-06T10:24:37;99503.91;;;6.30;83.28
81397;BME280;70852;49.908;8.126;2024-01-06T10:27:03;99503.28;;;6.33;83.65
81397;BME280;70852;49.908;8.126;2024-01-06T10:29:29;99508.78;;;6.33;83.26
81397;BME280;70852;49.908;8.126;2024-01-06T10:31:54;99508.56;;;6.30;82.73
81397;BME280;70852;49.908;8.126;2024-01-06T10:34:20;99505.16;;;6.24;82.99
81397;BME280;70852;49.908;8.126;2024-01-06T10:36:49;99507.25;;;6.27;82.79
81397;BME280;70852;49.908;8.126;2024-01-06T10:39:14;99503.47;;;6.37;81.90
81397;BME280;70852;49.908;8.126;2024-01-06T10:41:43;99501.97;;;6.31;82.36
81397;BME280;70852;49.908;8.126;2024-01-06T10:44:14;99505.16;;;6.24;82.58
81397;BME280;70852;49.908;8.126;2024-01-06T10:46:40;99504.47;;;6.41;81.54
81397;BME280;70852;49.908;8.126;2024-01-06T10:49:09;99503.28;;;6.33;82.30
81397;BME280;70852;49.908;8.126;2024-01-06T10:51:42;99500.41;;;6.38;83.20
81397;BME280;70852;49.908;8.126;2024-01-06T10:54:12;99505.72;;;6.35;83.26
81397;BME280;70852;49.908;8.126;2024-01-06T10:56:42;99503.22;;;6.47;83.36
81397;BME280;70852;49.908;8.126;2024-01-06T10:59:08;99502.41;;;6.46;83.33
81397;BME280;70852;49.908;8.126;2024-01-06T11:01:34;99500.38;;;6.52;83.66
81397;BME280;70852;49.908;8.126;2024-01-06T11:04:02;99491.56;;;6.64;83.06
81397;BME280;70852;49.908;8.126;2024-01-06T11:06:32;99495.06;;;6.55;82.67
81397;BME280;70852;49.908;8.126;2024-01-06T11:09:13;99496.75;;;6.43;83.46
81397;BME280;70852;49.908;8.126;2024-01-06T11:11:43;99487.22;;;6.63;83.24
81397;BME280;70852;49.908;8.126;2024-01-06T11:14:24;99495.81;;;6.70;83.05
81397;BME280;70852;49.908;8.126;2024-01-06T11:16:53;99489.66;;;6.64;83.07
81397;BME280;70852;49.908;8.126;2024-01-06T11:24:47;99490.50;;;6.73;82.59
81397;BME280;70852;49.908;8.126;2024-01-06T11:27:25;99486.13;;;6.72;82.73
81397;BME280;70852;49.908;8.126;2024-01-06T11:29:54;99484.75;;;6.83;83.03
81397;BME280;70852;49.908;8.126;2024-01-06T11:32:26;99485.88;;;6.82;83.24
81397;BME280;70852;49.908;8.126;2024-01-06T11:35:06;99491.09;;;6.92;83.27
81397;BME280;70852;49.908;8.126;2024-01-06T11:37:51;99484.69;;;6.97;83.09
81397;BME280;70852;49.908;8.126;2024-01-06T11:43:09;99481.28;;;7.00;84.14
81397;BME280;70852;49.908;8.126;2024-01-06T11:45:37;99478.50;;;6.91;83.87
81397;BME280;70852;49.908;8.126;2024-01-06T11:48:07;99474.44;;;6.89;83.72
81397;BME280;70852;49.908;8.126;2024-01-06T11:50:35;99472.09;;;6.96;85.12
81397;BME280;70852;49.908;8.126;2024-01-06T11:53:04;99477.06;;;6.94;84.03
81397;BME280;70852;49.908;8.126;2024-01-06T11:55:30;99474.25;;;7.08;83.83
81397;BME280;70852;49.908;8.126;2024-01-06T11:58:02;99474.78;;;7.18;83.92
81397;BME280;70852;49.908;8.126;2024-01-06T12:00:34;99480.44;;;7.22;84.15
81397;BME280;70852;49.908;8.126;2024-01-06T12:03:02;99477.50;;;7.10;83.56
81397;BME280;70852;49.908;8.126;2024-01-06T12:05:28;99480.56;;;7.08;84.55
81397;BME280;70852;49.908;8.126;2024-01-06T12:08:00;99474.41;;;7.11;85.07
81397;BME280;70852;49.908;8.126;2024-01-06T12:10:29;99477.31;;;7.06;84.81
81397;BME280;70852;49.908;8.126;2024-01-06T12:13:02;99479.34;;;7.01;85.59
81397;BME280;70852;49.908;8.126;2024-01-06T12:15:29;99471.09;;;6.92;85.93
81397;BME280;70852;49.908;8.126;2024-01-06T12:17:57;99476.31;;;7.02;86.69
81397;BME280;70852;49.908;8.126;2024-01-06T12:20:26;99477.84;;;7.17;85.11
81397;BME280;70852;49.908;8.126;2024-01-06T12:22:56;99476.59;;;7.31;85.73
81397;BME280;70852;49.908;8.126;2024-01-06T12:25:22;99471.59;;;7.33;85.65
81397;BME280;70852;49.908;8.126;2024-01-06T12:27:49;99480.22;;;7.41;85.39
81397;BME280;70852;49.908;8.126;2024-01-06T12:30:15;99471.09;;;7.31;85.12
81397;BME280;70852;49.908;8.126;2024-01-06T12:32:42;99473.66;;;7.19;85.88
81397;BME280;70852;49.908;8.126;2024-01-06T12:35:10;99465.94;;;7.30;86.56
81397;BME280;70852;49.908;8.126;2024-01-06T12:37:37;99466.56;;;7.27;86.37
81397;BME280;70852;49.908;8.126;2024-01-06T12:40:02;99460.09;;;7.31;86.49
81397;BME280;70852;49.908;8.126;2024-01-06T12:42:28;99470.63;;;7.29;85.25
81397;BME280;70852;49.908;8.126;2024-01-06T12:44:55;99469.44;;;7.22;85.90
81397;BME280;70852;49.908;8.126;2024-01-06T12:47:23;99477.25;;;7.28;86.46
81397;BME280;70852;49.908;8.126;2024-01-06T12:49:49;99476.28;;;7.33;86.28
81397;BME280;70852;49.908;8.126;2024-01-06T12:52:14;99476.59;;;7.31;86.68
81397;BME280;70852;49.908;8.126;2024-01-06T12:54:39;99473.91;;;7.40;86.47
81397;BME280;70852;49.908;8.126;2024-01-06T12:57:05;99481.16;;;7.36;86.47
81397;BME280;70852;49.908;8.126;2024-01-06T12:59:31;99484.06;;;7.40;87.13
81397;BME280;70852;49.908;8.126;2024-01-06T13:01:59;99476.28;;;7.33;87.24
81397;BME280;70852;49.908;8.126;2024-01-06T13:04:24;99480.66;;;7.34;87.31
81397;BME280;70852;49.908;8.126;2024-01-06T13:06:54;99479.53;;;7.35;87.86
81397;BME280;70852;49.908;8.126;2024-01-06T13:09:20;99485.31;;;7.33;87.50
81397;BME280;70852;49.908;8.126;2024-01-06T13:11:50;99492.59;;;7.29;88.19
81397;BME280;70852;49.908;8.126;2024-01-06T13:14:17;99492.88;;;7.19;88.04
81397;BME280;70852;49.908;8.126;2024-01-06T13:16:47;99490.44;;;7.18;87.94
81397;BME280;70852;49.908;8.126;2024-01-06T13:19:14;99492.50;;;7.12;87.97